sensor_id;sensor_type;location;lat;lon;timestamp;temperature;humidity
20319;DHT22;10317;47.254;11.314;2022-08-19T00:00:24;17.10;99.90
20319;DHT22;10317;47.254;11.314;2022-08-19T00:02:50;17.00;99.90
20319;DHT22;10317;47.254;11.314;2022-08-19T00:05:17;17.00;99.90
20319;DHT22;10317;47.254;11.314;2022-08-19T00:07:44;17.00;99.90
20319;DHT22;10317;47.254;11.314;2022-08-19T00:10:13;17.10;99.90
20319;DHT22;10317;47.254;11.314;2022-08-19T00:12:40;17.00;99.90
20319;DHT22;10317;47.254;11.314;2022-08-19T00:15:08;17.00;99.90
20319;DHT22;10317;47.254;11.314;2022-08-19T00:17:41;17.00;99.90
20319;DHT22;10317;47.254;11.314;2022-08-19T00:20:11;17.00;99.90
20319;DHT22;10317;47.254;11.314;2022-08-19T00:22:38;17.00;99.90
20319;DHT22;10317;47.254;11.314;2022-08-19T00:25:05;17.00;99.90
20319;DHT22;10317;47.254;11.314;2022-08-19T00:27:31;17.00;99.90
20319;DHT22;10317;47.254;11.314;2022-08-19T00:29:57;17.00;99.90
20319;DHT22;10317;47.254;11.314;2022-08-19T00:32:24;17.00;99.90
20319;DHT22;10317;47.254;11.314;2022-08-19T00:34:51;17.10;99.90
20319;DHT22;10317;47.254;11.314;2022-08-19T00:37:19;17.10;99.90
20319;DHT22;10317;47.254;11.314;2022-08-19T00:39:45;17.20;99.90
20319;DHT22;10317;47.254;11.314;2022-08-19T00:42:11;17.20;99.90
20319;DHT22;10317;47.254;11.314;2022-08-19T00:44:37;17.20;99.90
20319;DHT22;10317;47.254;11.314;2022-08-19T00:47:03;17.20;99.90
20319;DHT22;10317;47.254;11.314;2022-08-19T00:49:36;17.20;99.90
20319;DHT22;10317;47.254;11.314;2022-08-19T00:52:09;17.20;99.90
20319;DHT22;10317;47.254;11.314;2022-08-19T00:54:38;17.20;99.90
20319;DHT22;10317;47.254;11.314;2022-08-19T00:57:07;17.20;99.90
20319;DHT22;10317;47.254;11.314;2022-08-19T00:59:35;17.20;99.90
20319;DHT22;10317;47.254;11.314;2022-08-19T01:02:03;17.20;99.90
20319;DHT22;10317;47.254;11.314;2022-08-19T01:04:29;17.20;99.90
20319;DHT22;10317;47.254;11.314;2022-08-19T01:06:56;17.20;99.90
20319;DHT22;10317;47.254;11.314;2022-08-19T01:09:21;17.20;99.90
20319;DHT22;10317;47.254;11.314;2022-08-19T01:11:47;17.20;99.90
20319;DHT22;10317;47.254;11.314;2022-08-19T01:14:13;17.20;99.90
20319;DHT22;10317;47.254;11.314;2022-08-19T01:16:41;17.20;99.90
20319;DHT22;10317;47.254;11.314;2022-08-19T01:19:16;17.20;99.90
20319;DHT22;10317;47.254;11.314;2022-08-19T01:21:49;17.30;99.90
20319;DHT22;10317;47.254;11.314;2022-08-19T01:24:16;17.30;99.90
20319;DHT22;10317;47.254;11.314;2022-08-19T01:26:44;17.20;99.90
20319;DHT22;10317;47.254;11.314;2022-08-19T01:29:10;17.20;99.90
20319;DHT22;10317;47.254;11.314;2022-08-19T01:31:36;17.20;99.90
20319;DHT22;10317;47.254;11.314;2022-08-19T01:34:05;17.20;99.90
20319;DHT22;10317;47.254;11.314;2022-08-19T01:36:35;17.20;99.90
20319;DHT22;10317;47.254;11.314;2022-08-19T01:39:04;17.20;99.90
20319;DHT22;10317;47.254;11.314;2022-08-19T01:41:30;17.20;99.90
20319;DHT22;10317;47.254;11.314;2022-08-19T01:43:56;17.10;99.90
20319;DHT22;10317;47.254;11.314;2022-08-19T01:46:22;17.20;99.90
20319;DHT22;10317;47.254;11.314;2022-08-19T01:48:47;17.20;99.90
20319;DHT22;10317;47.254;11.314;2022-08-19T01:51:13;17.20;99.90
20319;DHT22;10317;47.254;11.314;2022-08-19T01:53:39;17.20;99.90
20319;DHT22;10317;47.254;11.314;2022-08-19T01:56:06;17.20;99.90
20319;DHT22;10317;47.254;11.314;2022-08-19T01:58:39;17.20;99.90
20319;DHT22;10317;47.254;11.314;2022-08-19T02:01:07;17.20;99.90
20319;DHT22;10317;47.254;11.314;2022-08-19T02:03:33;17.20;99.90
20319;DHT22;10317;47.254;11.314;2022-08-19T02:06:01;17.20;99.90
20319;DHT22;10317;47.254;11.314;2022-08-19T02:08:29;17.20;99.90
20319;DHT22;10317;47.254;11.314;2022-08-19T02:10:55;17.20;99.90
20319;DHT22;10317;47.254;11.314;2022-08-19T02:13:22;17.20;99.90
20319;DHT22;10317;47.254;11.314;2022-08-19T02:15:48;17.20;99.90
20319;DHT22;10317;47.254;11.314;2022-08-19T02:18:13;17.10;99.90
20319;DHT22;10317;47.254;11.314;2022-08-19T02:20:40;17.20;99.90
20319;DHT22;10317;47.254;11.314;2022-08-19T02:23:07;17.20;99.90
20319;DHT22;10317;47.254;11.314;2022-08-19T02:25:33;17.20;99.90
20319;DHT22;10317;47.254;11.314;2022-08-19T02:27:59;17.20;99.90
20319;DHT22;10317;47.254;11.314;2022-08-19T02:30:25;17.10;99.90
20319;DHT22;10317;47.254;11.314;2022-08-19T02:32:52;17.10;99.90
20319;DHT22;10317;47.254;11.314;2022-08-19T02:35:18;17.10;99.90
20319;DHT22;10317;47.254;11.314;2022-08-19T02:37:44;17.10;99.90
20319;DHT22;10317;47.254;11.314;2022-08-19T02:40:30;17.10;99.90
20319;DHT22;10317;47.254;11.314;2022-08-19T02:43:00;17.10;99.90
20319;DHT22;10317;47.254;11.314;2022-08-19T02:45:26;17.10;99.90
20319;DHT22;10317;47.254;11.314;2022-08-19T02:47:52;17.10;99.90
20319;DHT22;10317;47.254;11.314;2022-08-19T02:50:18;17.10;99.90
20319;DHT22;10317;47.254;11.314;2022-08-19T02:52:44;17.10;99.90
20319;DHT22;10317;47.254;11.314;2022-08-19T02:55:10;17.10;99.90
20319;DHT22;10317;47.254;11.314;2022-08-19T02:57:36;17.10;99.90
20319;DHT22;10317;47.254;11.314;2022-08-19T03:00:05;17.00;99.90
20319;DHT22;10317;47.254;11.314;2022-08-19T03:02:31;17.00;99.90
20319;DHT22;10317;47.254;11.314;2022-08-19T03:04:57;17.00;99.90
20319;DHT22;10317;47.254;11.314;2022-08-19T03:07:23;17.00;99.90
20319;DHT22;10317;47.254;11.314;2022-08-19T03:09:48;17.00;99.90
20319;DHT22;10317;47.254;11.314;2022-08-19T03:12:14;17.00;99.90
20319;DHT22;10317;47.254;11.314;2022-08-19T03:14:40;16.90;99.90
20319;DHT22;10317;47.254;11.314;2022-08-19T03:17:05;16.90;99.90
20319;DHT22;10317;47.254;11.314;2022-08-19T03:19:31;16.90;99.90
20319;DHT22;10317;47.254;11.314;2022-08-19T03:21:57;16.90;99.90
20319;DHT22;10317;47.254;11.314;2022-08-19T03:24:24;16.90;99.90
20319;DHT22;10317;47.254;11.314;2022-08-19T03:26:54;16.90;99.90
20319;DHT22;10317;47.254;11.314;2022-08-19T03:29:26;16.80;99.90
20319;DHT22;10317;47.254;11.314;2022-08-19T03:31:52;16.90;99.90
20319;DHT22;10317;47.254;11.314;2022-08-19T03:34:22;16.80;99.90
20319;DHT22;10317;47.254;11.314;2022-08-19T03:36:48;16.80;99.90
20319;DHT22;10317;47.254;11.314;2022-08-19T03:39:14;16.80;99.90
20319;DHT22;10317;47.254;11.314;2022-08-19T03:41:42;16.80;99.90
20319;DHT22;10317;47.254;11.314;2022-08-19T03:44:08;16.80;99.90
20319;DHT22;10317;47.254;11.314;2022-08-19T03:46:35;16.80;99.90
20319;DHT22;10317;47.254;11.314;2022-08-19T03:49:03;16.80;99.90
20319;DHT22;10317;47.254;11.314;2022-08-19T03:51:36;16.80;99.90
20319;DHT22;10317;47.254;11.314;2022-08-19T03:54:08;16.80;99.90
20319;DHT22;10317;47.254;11.314;2022-08-19T03:56:36;16.90;99.90
20319;DHT22;10317;47.254;11.314;2022-08-19T03:59:05;16.90;99.90
20319;DHT22;10317;47.254;11.314;2022-08-19T04:01:31;16.90;99.90
20319;DHT22;10317;47.254;11.314;2022-08-19T04:03:58;16.90;99.90
20319;DHT22;10317;47.254;11.314;2022-08-19T04:06:36;16.80;99.90
20319;DHT22;10317;47.254;11.314;2022-08-19T04:09:04;16.80;99.90
20319;DHT22;10317;47.254;11.314;2022-08-19T04:11:34;16.80;99.90
20319;DHT22;10317;47.254;11.314;2022-08-19T04:14:01;16.80;99.90
20319;DHT22;10317;47.254;11.314;2022-08-19T04:16:28;16.80;99.90
20319;DHT22;10317;47.254;11.314;2022-08-19T04:18:59;16.80;99.90
20319;DHT22;10317;47.254;11.314;2022-08-19T04:21:27;16.80;99.90
20319;DHT22;10317;47.254;11.314;2022-08-19T04:23:54;16.80;99.90
20319;DHT22;10317;47.254;11.314;2022-08-19T04:26:26;16.80;99.90
20319;DHT22;10317;47.254;11.314;2022-08-19T04:28:52;16.80;99.90
20319;DHT22;10317;47.254;11.314;2022-08-19T04:31:21;16.80;99.90
20319;DHT22;10317;47.254;11.314;2022-08-19T04:33:47;16.90;99.90
20319;DHT22;10317;47.254;11.314;2022-08-19T04:36:22;16.90;99.90
20319;DHT22;10317;47.254;11.314;2022-08-19T04:38:48;16.80;99.90
20319;DHT22;10317;47.254;11.314;2022-08-19T04:41:15;16.90;99.90
20319;DHT22;10317;47.254;11.314;2022-08-19T04:44:00;16.80;99.90
20319;DHT22;10317;47.254;11.314;2022-08-19T04:46:27;16.80;99.90
20319;DHT22;10317;47.254;11.314;2022-08-19T04:48:55;16.80;99.90
20319;DHT22;10317;47.254;11.314;2022-08-19T04:51:22;16.80;99.90
20319;DHT22;10317;47.254;11.314;2022-08-19T04:53:48;16.80;99.90
20319;DHT22;10317;47.254;11.314;2022-08-19T04:56:16;16.80;99.90
20319;DHT22;10317;47.254;11.314;2022-08-19T04:58:44;16.80;99.90
20319;DHT22;10317;47.254;11.314;2022-08-19T05:01:13;16.90;99.90
20319;DHT22;10317;47.254;11.314;2022-08-19T05:03:39;16.90;99.90
20319;DHT22;10317;47.254;11.314;2022-08-19T05:06:11;16.90;99.90
20319;DHT22;10317;47.254;11.314;2022-08-19T05:08:39;16.90;99.90
20319;DHT22;10317;47.254;11.314;2022-08-19T05:11:20;16.90;99.90
20319;DHT22;10317;47.254;11.314;2022-08-19T05:13:47;16.90;99.90
20319;DHT22;10317;47.254;11.314;2022-08-19T05:16:15;17.00;99.90
20319;DHT22;10317;47.254;11.314;2022-08-19T05:18:41;17.00;99.90
20319;DHT22;10317;47.254;11.314;2022-08-19T05:21:27;17.10;99.90
20319;DHT22;10317;47.254;11.314;2022-08-19T05:24:12;17.10;99.90
20319;DHT22;10317;47.254;11.314;2022-08-19T05:26:42;17.10;99.90
20319;DHT22;10317;47.254;11.314;2022-08-19T05:29:08;17.20;99.90
20319;DHT22;10317;47.254;11.314;2022-08-19T05:31:36;17.20;99.90
20319;DHT22;10317;47.254;11.314;2022-08-19T05:34:04;17.30;99.90
20319;DHT22;10317;47.254;11.314;2022-08-19T05:36:41;17.40;99.90
20319;DHT22;10317;47.254;11.314;2022-08-19T05:39:08;17.50;99.90
20319;DHT22;10317;47.254;11.314;2022-08-19T05:41:34;17.50;99.90
20319;DHT22;10317;47.254;11.314;2022-08-19T05:44:04;17.60;99.90
20319;DHT22;10317;47.254;11.314;2022-08-19T05:46:38;17.70;99.90
20319;DHT22;10317;47.254;11.314;2022-08-19T05:49:07;17.60;99.90
20319;DHT22;10317;47.254;11.314;2022-08-19T05:51:35;17.50;99.90
20319;DHT22;10317;47.254;11.314;2022-08-19T05:54:02;17.50;99.90
20319;DHT22;10317;47.254;11.314;2022-08-19T05:56:28;17.40;99.90
20319;DHT22;10317;47.254;11.314;2022-08-19T05:58:56;17.50;99.90
20319;DHT22;10317;47.254;11.314;2022-08-19T06:01:24;17.40;99.90
20319;DHT22;10317;47.254;11.314;2022-08-19T06:03:51;17.50;99.90
20319;DHT22;10317;47.254;11.314;2022-08-19T06:06:17;17.50;99.90
20319;DHT22;10317;47.254;11.314;2022-08-19T06:08:44;17.60;99.90
20319;DHT22;10317;47.254;11.314;2022-08-19T06:14:01;17.60;99.90
20319;DHT22;10317;47.254;11.314;2022-08-19T06:16:28;17.50;99.90
20319;DHT22;10317;47.254;11.314;2022-08-19T06:19:00;17.50;99.90
20319;DHT22;10317;47.254;11.314;2022-08-19T06:21:27;17.40;99.90
20319;DHT22;10317;47.254;11.314;2022-08-19T06:23:54;17.40;99.90
20319;DHT22;10317;47.254;11.314;2022-08-19T06:26:20;17.40;99.90
20319;DHT22;10317;47.254;11.314;2022-08-19T06:28:47;17.40;99.90
20319;DHT22;10317;47.254;11.314;2022-08-19T06:31:19;17.50;99.90
20319;DHT22;10317;47.254;11.314;2022-08-19T06:33:46;17.50;99.90
20319;DHT22;10317;47.254;11.314;2022-08-19T06:36:21;17.50;99.90
20319;DHT22;10317;47.254;11.314;2022-08-19T06:38:47;17.50;99.90
20319;DHT22;10317;47.254;11.314;2022-08-19T06:41:13;17.60;99.90
20319;DHT22;10317;47.254;11.314;2022-08-19T06:43:39;17.60;99.90
20319;DHT22;10317;47.254;11.314;2022-08-19T06:46:14;17.60;99.90
20319;DHT22;10317;47.254;11.314;2022-08-19T06:48:40;17.60;99.90
20319;DHT22;10317;47.254;11.314;2022-08-19T06:51:06;17.60;99.90
20319;DHT22;10317;47.254;11.314;2022-08-19T06:53:32;17.60;99.90
20319;DHT22;10317;47.254;11.314;2022-08-19T06:55:58;17.60;99.90
20319;DHT22;10317;47.254;11.314;2022-08-19T06:58:29;17.60;99.90
20319;DHT22;10317;47.254;11.314;2022-08-19T07:01:00;17.50;99.90
20319;DHT22;10317;47.254;11.314;2022-08-19T07:03:32;17.50;99.90
20319;DHT22;10317;47.254;11.314;2022-08-19T07:06:04;17.60;99.90
20319;DHT22;10317;47.254;11.314;2022-08-19T07:08:31;17.60;99.90
20319;DHT22;10317;47.254;11.314;2022-08-19T07:10:57;17.60;99.90
20319;DHT22;10317;47.254;11.314;2022-08-19T07:13:23;17.60;99.90
20319;DHT22;10317;47.254;11.314;2022-08-19T07:15:49;17.60;99.90
20319;DHT22;10317;47.254;11.314;2022-08-19T07:18:19;17.70;99.90
20319;DHT22;10317;47.254;11.314;2022-08-19T07:20:46;17.70;99.90
20319;DHT22;10317;47.254;11.314;2022-08-19T07:23:12;17.80;99.90
20319;DHT22;10317;47.254;11.314;2022-08-19T07:25:38;17.90;99.90
20319;DHT22;10317;47.254;11.314;2022-08-19T07:28:04;17.90;99.90
20319;DHT22;10317;47.254;11.314;2022-08-19T07:30:32;18.00;99.90
20319;DHT22;10317;47.254;11.314;2022-08-19T07:33:01;18.00;99.90
20319;DHT22;10317;47.254;11.314;2022-08-19T07:35:26;18.00;99.90
20319;DHT22;10317;47.254;11.314;2022-08-19T07:37:53;18.10;99.90
20319;DHT22;10317;47.254;11.314;2022-08-19T07:40:19;18.00;99.90
20319;DHT22;10317;47.254;11.314;2022-08-19T07:42:45;18.00;99.90
20319;DHT22;10317;47.254;11.314;2022-08-19T07:45:10;18.00;99.90
20319;DHT22;10317;47.254;11.314;2022-08-19T07:47:36;18.10;99.90
20319;DHT22;10317;47.254;11.314;2022-08-19T07:50:03;18.20;99.90
20319;DHT22;10317;47.254;11.314;2022-08-19T07:52:30;18.40;99.90
20319;DHT22;10317;47.254;11.314;2022-08-19T07:54:55;18.50;99.90
20319;DHT22;10317;47.254;11.314;2022-08-19T07:57:21;18.80;99.90
20319;DHT22;10317;47.254;11.314;2022-08-19T07:59:47;19.00;99.90
20319;DHT22;10317;47.254;11.314;2022-08-19T08:02:12;19.00;99.90
20319;DHT22;10317;47.254;11.314;2022-08-19T08:04:38;19.00;99.90
20319;DHT22;10317;47.254;11.314;2022-08-19T08:07:22;19.00;99.90
20319;DHT22;10317;47.254;11.314;2022-08-19T08:10:07;19.20;99.90
20319;DHT22;10317;47.254;11.314;2022-08-19T08:12:36;19.60;99.90
20319;DHT22;10317;47.254;11.314;2022-08-19T08:15:09;19.80;99.90
20319;DHT22;10317;47.254;11.314;2022-08-19T08:17:35;20.00;99.90
20319;DHT22;10317;47.254;11.314;2022-08-19T08:20:04;20.20;99.90
20319;DHT22;10317;47.254;11.314;2022-08-19T08:22:32;20.40;99.90
20319;DHT22;10317;47.254;11.314;2022-08-19T08:25:19;20.60;99.90
20319;DHT22;10317;47.254;11.314;2022-08-19T08:27:46;20.70;99.90
20319;DHT22;10317;47.254;11.314;2022-08-19T08:30:14;20.90;99.90
20319;DHT22;10317;47.254;11.314;2022-08-19T08:32:41;21.20;99.50
20319;DHT22;10317;47.254;11.314;2022-08-19T08:35:10;21.60;99.10
20319;DHT22;10317;47.254;11.314;2022-08-19T08:37:36;22.10;97.70
20319;DHT22;10317;47.254;11.314;2022-08-19T08:40:39;22.40;96.90
20319;DHT22;10317;47.254;11.314;2022-08-19T08:43:14;22.90;95.30
20319;DHT22;10317;47.254;11.314;2022-08-19T08:46:01;23.40;94.00
20319;DHT22;10317;47.254;11.314;2022-08-19T08:48:48;23.90;93.80
20319;DHT22;10317;47.254;11.314;2022-08-19T08:51:32;24.20;92.60
20319;DHT22;10317;47.254;11.314;2022-08-19T08:53:59;24.10;92.50
20319;DHT22;10317;47.254;11.314;2022-08-19T08:56:26;24.30;91.90
20319;DHT22;10317;47.254;11.314;2022-08-19T08:59:16;24.30;92.60
20319;DHT22;10317;47.254;11.314;2022-08-19T09:01:44;24.70;90.50
20319;DHT22;10317;47.254;11.314;2022-08-19T09:04:10;24.80;91.00
20319;DHT22;10317;47.254;11.314;2022-08-19T09:06:47;24.50;88.80
20319;DHT22;10317;47.254;11.314;2022-08-19T09:14:58;25.10;87.70
20319;DHT22;10317;47.254;11.314;2022-08-19T09:17:28;25.60;87.20
20319;DHT22;10317;47.254;11.314;2022-08-19T09:20:19;25.70;86.70
20319;DHT22;10317;47.254;11.314;2022-08-19T09:22:45;25.80;85.10
20319;DHT22;10317;47.254;11.314;2022-08-19T09:25:17;25.60;84.40
20319;DHT22;10317;47.254;11.314;2022-08-19T09:27:44;25.00;85.40
20319;DHT22;10317;47.254;11.314;2022-08-19T09:30:14;24.30;87.70
20319;DHT22;10317;47.254;11.314;2022-08-19T09:32:40;23.70;89.20
20319;DHT22;10317;47.254;11.314;2022-08-19T09:35:08;23.60;90.70
20319;DHT22;10317;47.254;11.314;2022-08-19T09:37:34;23.50;90.10
20319;DHT22;10317;47.254;11.314;2022-08-19T09:40:00;23.80;90.50
20319;DHT22;10317;47.254;11.314;2022-08-19T09:42:26;24.30;90.40
20319;DHT22;10317;47.254;11.314;2022-08-19T09:44:51;24.60;89.00
20319;DHT22;10317;47.254;11.314;2022-08-19T09:47:17;24.50;88.20
20319;DHT22;10317;47.254;11.314;2022-08-19T09:49:43;24.50;89.90
20319;DHT22;10317;47.254;11.314;2022-08-19T09:52:10;24.80;90.00
20319;DHT22;10317;47.254;11.314;2022-08-19T09:54:39;25.00;88.10
20319;DHT22;10317;47.254;11.314;2022-08-19T09:57:05;24.90;88.20
20319;DHT22;10317;47.254;11.314;2022-08-19T09:59:31;24.60;87.00
20319;DHT22;10317;47.254;11.314;2022-08-19T10:01:57;24.80;88.90
20319;DHT22;10317;47.254;11.314;2022-08-19T10:04:23;24.90;87.20
20319;DHT22;10317;47.254;11.314;2022-08-19T10:07:08;24.50;87.10
20319;DHT22;10317;47.254;11.314;2022-08-19T10:09:34;24.50;87.40
20319;DHT22;10317;47.254;11.314;2022-08-19T10:12:03;24.70;87.30
20319;DHT22;10317;47.254;11.314;2022-08-19T10:14:30;24.60;87.30
20319;DHT22;10317;47.254;11.314;2022-08-19T10:16:56;24.70;86.90
20319;DHT22;10317;47.254;11.314;2022-08-19T10:19:22;24.70;87.50
20319;DHT22;10317;47.254;11.314;2022-08-19T10:21:48;24.90;85.70
20319;DHT22;10317;47.254;11.314;2022-08-19T10:24:13;24.90;89.10
20319;DHT22;10317;47.254;11.314;2022-08-19T10:26:40;24.80;88.30
20319;DHT22;10317;47.254;11.314;2022-08-19T10:29:13;24.70;87.00
20319;DHT22;10317;47.254;11.314;2022-08-19T10:31:42;24.60;89.70
20319;DHT22;10317;47.254;11.314;2022-08-19T10:34:07;24.70;88.60
20319;DHT22;10317;47.254;11.314;2022-08-19T10:36:36;24.80;87.80
20319;DHT22;10317;47.254;11.314;2022-08-19T10:39:07;24.80;87.00
20319;DHT22;10317;47.254;11.314;2022-08-19T10:41:36;24.80;87.50
20319;DHT22;10317;47.254;11.314;2022-08-19T10:44:08;24.80;89.40
20319;DHT22;10317;47.254;11.314;2022-08-19T10:46:38;24.90;86.90
20319;DHT22;10317;47.254;11.314;2022-08-19T10:49:06;25.20;88.10
20319;DHT22;10317;47.254;11.314;2022-08-19T10:51:32;24.90;84.90
20319;DHT22;10317;47.254;11.314;2022-08-19T10:54:17;24.80;85.90
20319;DHT22;10317;47.254;11.314;2022-08-19T10:56:43;24.80;86.40
20319;DHT22;10317;47.254;11.314;2022-08-19T10:59:29;24.60;88.40
20319;DHT22;10317;47.254;11.314;2022-08-19T11:02:00;24.30;85.70
20319;DHT22;10317;47.254;11.314;2022-08-19T11:04:26;24.20;90.00
20319;DHT22;10317;47.254;11.314;2022-08-19T11:06:52;24.10;86.80
20319;DHT22;10317;47.254;11.314;2022-08-19T11:09:21;24.10;85.60
20319;DHT22;10317;47.254;11.314;2022-08-19T11:11:47;24.10;87.30
20319;DHT22;10317;47.254;11.314;2022-08-19T11:14:15;24.30;85.30
20319;DHT22;10317;47.254;11.314;2022-08-19T11:16:43;24.60;85.80
20319;DHT22;10317;47.254;11.314;2022-08-19T11:19:11;24.60;84.10
20319;DHT22;10317;47.254;11.314;2022-08-19T11:21:40;24.50;83.10
20319;DHT22;10317;47.254;11.314;2022-08-19T11:24:10;24.50;85.70
20319;DHT22;10317;47.254;11.314;2022-08-19T11:26:37;24.90;84.20
20319;DHT22;10317;47.254;11.314;2022-08-19T11:29:04;25.10;87.60
20319;DHT22;10317;47.254;11.314;2022-08-19T11:31:32;25.00;85.40
20319;DHT22;10317;47.254;11.314;2022-08-19T11:34:00;25.10;83.40
20319;DHT22;10317;47.254;11.314;2022-08-19T11:36:27;24.60;79.40
20319;DHT22;10317;47.254;11.314;2022-08-19T11:38:54;24.90;84.50
20319;DHT22;10317;47.254;11.314;2022-08-19T11:41:21;25.10;82.10
20319;DHT22;10317;47.254;11.314;2022-08-19T11:43:49;25.30;79.50
20319;DHT22;10317;47.254;11.314;2022-08-19T11:46:16;25.50;79.30
20319;DHT22;10317;47.254;11.314;2022-08-19T11:48:42;25.70;81.30
20319;DHT22;10317;47.254;11.314;2022-08-19T11:51:14;25.70;79.60
20319;DHT22;10317;47.254;11.314;2022-08-19T11:53:41;25.70;80.40
20319;DHT22;10317;47.254;11.314;2022-08-19T11:56:08;25.90;77.60
20319;DHT22;10317;47.254;11.314;2022-08-19T11:58:35;25.80;76.50
20319;DHT22;10317;47.254;11.314;2022-08-19T12:01:01;25.60;78.80
20319;DHT22;10317;47.254;11.314;2022-08-19T12:03:26;25.80;78.00
20319;DHT22;10317;47.254;11.314;2022-08-19T12:05:53;25.50;76.20
20319;DHT22;10317;47.254;11.314;2022-08-19T12:08:19;25.70;78.40
20319;DHT22;10317;47.254;11.314;2022-08-19T12:10:45;25.70;76.20
20319;DHT22;10317;47.254;11.314;2022-08-19T12:13:12;26.00;77.60
20319;DHT22;10317;47.254;11.314;2022-08-19T12:15:44;26.10;75.10
20319;DHT22;10317;47.254;11.314;2022-08-19T12:18:11;26.10;75.10
20319;DHT22;10317;47.254;11.314;2022-08-19T12:20:40;26.10;74.70
20319;DHT22;10317;47.254;11.314;2022-08-19T12:23:07;25.70;76.40
20319;DHT22;10317;47.254;11.314;2022-08-19T12:25:35;25.20;75.80
20319;DHT22;10317;47.254;11.314;2022-08-19T12:28:01;25.30;77.60
20319;DHT22;10317;47.254;11.314;2022-08-19T12:30:27;25.50;76.20
20319;DHT22;10317;47.254;11.314;2022-08-19T12:32:53;25.50;76.70
20319;DHT22;10317;47.254;11.314;2022-08-19T12:35:19;25.80;76.90
20319;DHT22;10317;47.254;11.314;2022-08-19T12:37:47;26.10;75.70
20319;DHT22;10317;47.254;11.314;2022-08-19T12:40:14;26.00;72.60
20319;DHT22;10317;47.254;11.314;2022-08-19T12:42:41;26.00;73.20
20319;DHT22;10317;47.254;11.314;2022-08-19T12:45:09;25.90;72.80
20319;DHT22;10317;47.254;11.314;2022-08-19T12:47:35;25.90;75.60
20319;DHT22;10317;47.254;11.314;2022-08-19T12:50:01;26.00;74.90
20319;DHT22;10317;47.254;11.314;2022-08-19T12:52:27;25.70;74.00
20319;DHT22;10317;47.254;11.314;2022-08-19T12:54:55;25.90;72.70
20319;DHT22;10317;47.254;11.314;2022-08-19T12:57:26;25.90;73.30
20319;DHT22;10317;47.254;11.314;2022-08-19T12:59:53;25.70;74.10
20319;DHT22;10317;47.254;11.314;2022-08-19T13:02:21;25.90;75.30
20319;DHT22;10317;47.254;11.314;2022-08-19T13:04:48;25.90;74.00
20319;DHT22;10317;47.254;11.314;2022-08-19T13:07:13;26.10;72.50
20319;DHT22;10317;47.254;11.314;2022-08-19T13:09:39;26.20;72.80
20319;DHT22;10317;47.254;11.314;2022-08-19T13:12:08;26.20;72.60
20319;DHT22;10317;47.254;11.314;2022-08-19T13:14:39;26.30;76.30
20319;DHT22;10317;47.254;11.314;2022-08-19T13:17:06;26.70;76.30
20319;DHT22;10317;47.254;11.314;2022-08-19T13:19:31;26.80;73.50
20319;DHT22;10317;47.254;11.314;2022-08-19T13:21:57;26.80;71.80
20319;DHT22;10317;47.254;11.314;2022-08-19T13:24:24;26.80;69.70
20319;DHT22;10317;47.254;11.314;2022-08-19T13:26:50;26.70;70.20
20319;DHT22;10317;47.254;11.314;2022-08-19T13:29:15;26.60;74.20
20319;DHT22;10317;47.254;11.314;2022-08-19T13:32:00;26.40;72.30
20319;DHT22;10317;47.254;11.314;2022-08-19T13:34:44;26.20;76.50
20319;DHT22;10317;47.254;11.314;2022-08-19T13:37:11;25.90;73.40
20319;DHT22;10317;47.254;11.314;2022-08-19T13:39:37;25.70;75.50
20319;DHT22;10317;47.254;11.314;2022-08-19T13:42:03;25.50;73.20
20319;DHT22;10317;47.254;11.314;2022-08-19T13:44:30;25.30;76.20
20319;DHT22;10317;47.254;11.314;2022-08-19T13:47:01;25.20;80.50
20319;DHT22;10317;47.254;11.314;2022-08-19T13:49:31;25.10;81.50
20319;DHT22;10317;47.254;11.314;2022-08-19T13:51:59;25.10;79.60
20319;DHT22;10317;47.254;11.314;2022-08-19T13:54:24;25.00;77.90
20319;DHT22;10317;47.254;11.314;2022-08-19T13:56:50;24.90;78.70
20319;DHT22;10317;47.254;11.314;2022-08-19T13:59:16;24.90;81.80
20319;DHT22;10317;47.254;11.314;2022-08-19T14:01:43;24.80;80.70
20319;DHT22;10317;47.254;11.314;2022-08-19T14:04:08;24.50;79.00
20319;DHT22;10317;47.254;11.314;2022-08-19T14:06:34;24.30;79.40
20319;DHT22;10317;47.254;11.314;2022-08-19T14:09:00;24.30;83.40
20319;DHT22;10317;47.254;11.314;2022-08-19T14:11:27;23.90;90.50
20319;DHT22;10317;47.254;11.314;2022-08-19T14:13:53;23.50;92.10
20319;DHT22;10317;47.254;11.314;2022-08-19T14:16:19;23.30;92.40
20319;DHT22;10317;47.254;11.314;2022-08-19T14:18:46;23.10;94.10
20319;DHT22;10317;47.254;11.314;2022-08-19T14:21:19;22.90;94.70
20319;DHT22;10317;47.254;11.314;2022-08-19T14:23:46;22.70;95.60
20319;DHT22;10317;47.254;11.314;2022-08-19T14:26:15;22.50;97.30
20319;DHT22;10317;47.254;11.314;2022-08-19T14:28:42;22.40;96.80
20319;DHT22;10317;47.254;11.314;2022-08-19T14:31:09;22.40;96.80
20319;DHT22;10317;47.254;11.314;2022-08-19T14:33:35;22.20;97.50
20319;DHT22;10317;47.254;11.314;2022-08-19T14:36:02;22.10;97.90
20319;DHT22;10317;47.254;11.314;2022-08-19T14:38:28;22.00;98.20
20319;DHT22;10317;47.254;11.314;2022-08-19T14:41:09;21.70;98.70
20319;DHT22;10317;47.254;11.314;2022-08-19T14:43:36;21.70;99.80
20319;DHT22;10317;47.254;11.314;2022-08-19T14:46:02;21.60;99.50
20319;DHT22;10317;47.254;11.314;2022-08-19T14:48:27;21.50;99.90
20319;DHT22;10317;47.254;11.314;2022-08-19T14:50:53;21.30;99.50
20319;DHT22;10317;47.254;11.314;2022-08-19T14:53:19;21.30;99.50
20319;DHT22;10317;47.254;11.314;2022-08-19T14:55:45;21.30;99.90
20319;DHT22;10317;47.254;11.314;2022-08-19T14:58:12;21.30;99.90
20319;DHT22;10317;47.254;11.314;2022-08-19T15:00:38;21.30;99.90
20319;DHT22;10317;47.254;11.314;2022-08-19T15:03:04;21.40;99.90
20319;DHT22;10317;47.254;11.314;2022-08-19T15:05:29;21.40;99.90
20319;DHT22;10317;47.254;11.314;2022-08-19T15:07:55;21.50;99.90
20319;DHT22;10317;47.254;11.314;2022-08-19T15:10:22;21.60;99.90
20319;DHT22;10317;47.254;11.314;2022-08-19T15:12:50;21.60;99.90
20319;DHT22;10317;47.254;11.314;2022-08-19T15:15:16;21.70;99.90
20319;DHT22;10317;47.254;11.314;2022-08-19T15:17:45;21.80;99.90
20319;DHT22;10317;47.254;11.314;2022-08-19T15:20:14;21.70;99.90
20319;DHT22;10317;47.254;11.314;2022-08-19T15:22:40;21.80;99.90
20319;DHT22;10317;47.254;11.314;2022-08-19T15:25:09;21.80;99.90
20319;DHT22;10317;47.254;11.314;2022-08-19T15:27:35;21.60;99.90
20319;DHT22;10317;47.254;11.314;2022-08-19T15:30:03;21.70;99.90